sensor_id;sensor_type;location;lat;lon;timestamp;pressure;altitude;pressure_sealevel;temperature;humidity
66880;BME280;53789;51.392;10.234;2023-05-18T00:00:18;99272.81;;;5.08;69.17
66880;BME280;53789;51.392;10.234;2023-05-18T00:00:38;99267.34;;;5.08;69.18
66880;BME280;53789;51.392;10.234;2023-05-18T00:00:58;99268.16;;;5.08;68.89
66880;BME280;53789;51.392;10.234;2023-05-18T00:01:18;99268.16;;;5.08;69.24
66880;BME280;53789;51.392;10.234;2023-05-18T00:01:39;99270.44;;;5.11;69.39
66880;BME280;53789;51.392;10.234;2023-05-18T00:02:00;99270.44;;;5.11;68.62
66880;BME280;53789;51.392;10.234;2023-05-18T00:02:20;99273.16;;;5.11;68.88
66880;BME280;53789;51.392;10.234;2023-05-18T00:02:41;99271.81;;;5.14;69.65
66880;BME280;53789;51.392;10.234;2023-05-18T00:03:01;99274.53;;;5.14;69.17
66880;BME280;53789;51.392;10.234;2023-05-18T00:03:21;99266.38;;;5.14;68.23
66880;BME280;53789;51.392;10.234;2023-05-18T00:03:42;99273.47;;;5.15;68.76
66880;BME280;53789;51.392;10.234;2023-05-18T00:04:02;99268.03;;;5.15;68.82
66880;BME280;53789;51.392;10.234;2023-05-18T00:04:22;99274.28;;;5.15;68.52
66880;BME280;53789;51.392;10.234;2023-05-18T00:04:43;99268.03;;;5.15;68.50
66880;BME280;53789;51.392;10.234;2023-05-18T00:05:03;99269.69;;;5.16;69.15
66880;BME280;53789;51.392;10.234;2023-05-18T00:05:24;99275.16;;;5.16;68.52
66880;BME280;53789;51.392;10.234;2023-05-18T00:05:44;99273.25;;;5.17;68.32
66880;BME280;53789;51.392;10.234;2023-05-18T00:06:04;99270.75;;;5.15;68.07
66880;BME280;53789;51.392;10.234;2023-05-18T00:06:25;99268.59;;;5.17;68.45
66880;BME280;53789;51.392;10.234;2023-05-18T00:06:45;99265.88;;;5.17;68.41
66880;BME280;53789;51.392;10.234;2023-05-18T00:07:05;99267.78;;;5.17;68.74
66880;BME280;53789;51.392;10.234;2023-05-18T00:07:26;99265.06;;;5.17;68.50
66880;BME280;53789;51.392;10.234;2023-05-18T00:07:46;99264.00;;;5.18;68.63
66880;BME280;53789;51.392;10.234;2023-05-18T00:08:06;99271.06;;;5.19;68.66
66880;BME280;53789;51.392;10.234;2023-05-18T00:08:26;99264.81;;;5.18;68.52
66880;BME280;53789;51.392;10.234;2023-05-18T00:08:47;99266.72;;;5.18;67.76
66880;BME280;53789;51.392;10.234;2023-05-18T00:09:07;99271.31;;;5.17;68.07
66880;BME280;53789;51.392;10.234;2023-05-18T00:09:29;99262.56;;;5.15;68.16
66880;BME280;53789;51.392;10.234;2023-05-18T00:09:49;99271.56;;;5.15;67.75
66880;BME280;53789;51.392;10.234;2023-05-18T00:10:10;99269.94;;;5.14;67.86
66880;BME280;53789;51.392;10.234;2023-05-18T00:10:30;99266.59;;;5.12;67.79
66880;BME280;53789;51.392;10.234;2023-05-18T00:10:50;99272.06;;;5.12;67.80
66880;BME280;53789;51.392;10.234;2023-05-18T00:11:10;99270.19;;;5.13;68.74
66880;BME280;53789;51.392;10.234;2023-05-18T00:11:31;99270.19;;;5.13;68.59
66880;BME280;53789;51.392;10.234;2023-05-18T00:11:54;99274.78;;;5.12;68.12
66880;BME280;53789;51.392;10.234;2023-05-18T00:12:15;99272.06;;;5.12;68.50
66880;BME280;53789;51.392;10.234;2023-05-18T00:12:35;99268.53;;;5.12;68.32
66880;BME280;53789;51.392;10.234;2023-05-18T00:12:55;99272.06;;;5.12;68.56
66880;BME280;53789;51.392;10.234;2023-05-18T00:13:16;99271.25;;;5.12;68.41
66880;BME280;53789;51.392;10.234;2023-05-18T00:13:36;99271.25;;;5.12;68.41
66880;BME280;53789;51.392;10.234;2023-05-18T00:13:56;99277.53;;;5.12;68.46
66880;BME280;53789;51.392;10.234;2023-05-18T00:14:17;99269.59;;;5.11;68.10
66880;BME280;53789;51.392;10.234;2023-05-18T00:14:37;99274.22;;;5.10;68.01
66880;BME280;53789;51.392;10.234;2023-05-18T00:14:57;99268.78;;;5.10;68.49
66880;BME280;53789;51.392;10.234;2023-05-18T00:15:18;99270.44;;;5.11;68.67
66880;BME280;53789;51.392;10.234;2023-05-18T00:15:38;99263.31;;;5.10;68.71
66880;BME280;53789;51.392;10.234;2023-05-18T00:15:58;99273.16;;;5.11;68.61
66880;BME280;53789;51.392;10.234;2023-05-18T00:16:19;99271.50;;;5.10;67.77
66880;BME280;53789;51.392;10.234;2023-05-18T00:16:39;99267.91;;;5.10;68.21
66880;BME280;53789;51.392;10.234;2023-05-18T00:16:59;99270.91;;;5.08;67.93
66880;BME280;53789;51.392;10.234;2023-05-18T00:17:20;99273.63;;;5.08;67.85
66880;BME280;53789;51.392;10.234;2023-05-18T00:17:40;99266.53;;;5.07;67.87
66880;BME280;53789;51.392;10.234;2023-05-18T00:18:00;99272.81;;;5.08;68.20
66880;BME280;53789;51.392;10.234;2023-05-18T00:18:21;99272.81;;;5.08;68.45
66880;BME280;53789;51.392;10.234;2023-05-18T00:18:41;99273.06;;;5.06;68.44
66880;BME280;53789;51.392;10.234;2023-05-18T00:19:02;99271.38;;;5.05;68.16
66880;BME280;53789;51.392;10.234;2023-05-18T00:19:23;99276.28;;;5.03;68.30
66880;BME280;53789;51.392;10.234;2023-05-18T00:19:43;99270.81;;;5.03;68.37
66880;BME280;53789;51.392;10.234;2023-05-18T00:20:04;99275.69;;;5.01;68.12
66880;BME280;53789;51.392;10.234;2023-05-18T00:20:24;99266.91;;;4.99;68.20
66880;BME280;53789;51.392;10.234;2023-05-18T00:20:45;99270.72;;;4.98;68.13
66880;BME280;53789;51.392;10.234;2023-05-18T00:21:05;99270.72;;;4.98;68.72
66880;BME280;53789;51.392;10.234;2023-05-18T00:21:25;99269.06;;;4.97;68.40
66880;BME280;53789;51.392;10.234;2023-05-18T00:21:46;99276.16;;;4.98;68.62
66880;BME280;53789;51.392;10.234;2023-05-18T00:22:07;99271.81;;;4.97;68.32
66880;BME280;53789;51.392;10.234;2023-05-18T00:22:27;99266.34;;;4.97;68.81
66880;BME280;53789;51.392;10.234;2023-05-18T00:22:47;99273.44;;;4.98;68.62
66880;BME280;53789;51.392;10.234;2023-05-18T00:23:08;99270.72;;;4.98;69.37
66880;BME280;53789;51.392;10.234;2023-05-18T00:23:29;99273.22;;;5.00;69.21
66880;BME280;53789;51.392;10.234;2023-05-18T00:23:50;99268.59;;;5.00;68.52
66880;BME280;53789;51.392;10.234;2023-05-18T00:24:10;99275.94;;;5.00;68.52
66880;BME280;53789;51.392;10.234;2023-05-18T00:24:31;99271.31;;;5.00;68.55
66880;BME280;53789;51.392;10.234;2023-05-18T00:24:51;99272.13;;;5.01;68.71
66880;BME280;53789;51.392;10.234;2023-05-18T00:25:12;99276.75;;;5.00;68.79
66880;BME280;53789;51.392;10.234;2023-05-18T00:25:32;99277.56;;;5.01;69.08
66880;BME280;53789;51.392;10.234;2023-05-18T00:25:52;99275.94;;;5.00;68.50
66880;BME280;53789;51.392;10.234;2023-05-18T00:26:13;99277.56;;;5.01;68.73
66880;BME280;53789;51.392;10.234;2023-05-18T00:26:33;99278.44;;;5.01;68.83
66880;BME280;53789;51.392;10.234;2023-05-18T00:26:53;99280.06;;;5.02;69.10
66880;BME280;53789;51.392;10.234;2023-05-18T00:27:13;99279.25;;;5.02;69.11
66880;BME280;53789;51.392;10.234;2023-05-18T00:27:34;99281.97;;;5.02;68.46
66880;BME280;53789;51.392;10.234;2023-05-18T00:27:54;99273.78;;;5.02;68.75
66880;BME280;53789;51.392;10.234;2023-05-18T00:28:14;99280.31;;;5.01;68.50
66880;BME280;53789;51.392;10.234;2023-05-18T00:28:34;99282.78;;;5.02;67.99
66880;BME280;53789;51.392;10.234;2023-05-18T00:28:55;99279.50;;;5.00;68.21
66880;BME280;53789;51.392;10.234;2023-05-18T00:29:15;99273.22;;;5.00;67.77
66880;BME280;53789;51.392;10.234;2023-05-18T00:29:35;99275.94;;;5.00;68.04
66880;BME280;53789;51.392;10.234;2023-05-18T00:29:55;99278.88;;;4.98;67.81
66880;BME280;53789;51.392;10.234;2023-05-18T00:30:16;99276.16;;;4.98;68.19
66880;BME280;53789;51.392;10.234;2023-05-18T00:30:36;99279.09;;;4.96;68.34
66880;BME280;53789;51.392;10.234;2023-05-18T00:30:56;99279.34;;;4.95;67.93
66880;BME280;53789;51.392;10.234;2023-05-18T00:31:17;99272.00;;;4.95;68.22
66880;BME280;53789;51.392;10.234;2023-05-18T00:31:38;99282.91;;;4.95;68.27
66880;BME280;53789;51.392;10.234;2023-05-18T00:31:58;99279.34;;;4.95;68.25
66880;BME280;53789;51.392;10.234;2023-05-18T00:32:19;99279.34;;;4.95;68.55
66880;BME280;53789;51.392;10.234;2023-05-18T00:32:39;99284.81;;;4.95;68.66
66880;BME280;53789;51.392;10.234;2023-05-18T00:32:59;99281.25;;;4.94;68.27
66880;BME280;53789;51.392;10.234;2023-05-18T00:33:20;99279.34;;;4.95;68.72
66880;BME280;53789;51.392;10.234;2023-05-18T00:33:40;99277.47;;;4.95;68.80
66880;BME280;53789;51.392;10.234;2023-05-18T00:34:01;99285.66;;;4.95;68.89
66880;BME280;53789;51.392;10.234;2023-05-18T00:34:22;99282.06;;;4.95;68.48
66880;BME280;53789;51.392;10.234;2023-05-18T00:34:42;99278.28;;;4.96;68.83
66880;BME280;53789;51.392;10.234;2023-05-18T00:35:03;99281.00;;;4.96;68.52
66880;BME280;53789;51.392;10.234;2023-05-18T00:35:23;99284.56;;;4.96;68.83
66880;BME280;53789;51.392;10.234;2023-05-18T00:35:44;99277.47;;;4.95;67.58
66880;BME280;53789;51.392;10.234;2023-05-18T00:36:04;99283.75;;;4.96;68.61
66880;BME280;53789;51.392;10.234;2023-05-18T00:36:24;99275.56;;;4.96;68.11
66880;BME280;53789;51.392;10.234;2023-05-18T00:36:45;99280.19;;;4.95;68.60
66880;BME280;53789;51.392;10.234;2023-05-18T00:37:05;99276.63;;;4.95;68.92
66880;BME280;53789;51.392;10.234;2023-05-18T00:37:25;99277.47;;;4.95;68.64
66880;BME280;53789;51.392;10.234;2023-05-18T00:37:45;99275.81;;;4.94;68.56
66880;BME280;53789;51.392;10.234;2023-05-18T00:38:06;99275.00;;;4.94;68.36
66880;BME280;53789;51.392;10.234;2023-05-18T00:38:26;99276.63;;;4.95;68.27
66880;BME280;53789;51.392;10.234;2023-05-18T00:38:46;99275.81;;;4.94;68.26
66880;BME280;53789;51.392;10.234;2023-05-18T00:39:07;99277.72;;;4.94;68.22
66880;BME280;53789;51.392;10.234;2023-05-18T00:39:28;99277.72;;;4.94;68.37
66880;BME280;53789;51.392;10.234;2023-05-18T00:39:48;99274.13;;;4.93;68.17
66880;BME280;53789;51.392;10.234;2023-05-18T00:40:09;99273.31;;;4.93;67.96
66880;BME280;53789;51.392;10.234;2023-05-18T00:40:30;99280.69;;;4.92;68.14
66880;BME280;53789;51.392;10.234;2023-05-18T00:40:50;99278.78;;;4.93;68.16
66880;BME280;53789;51.392;10.234;2023-05-18T00:41:10;99282.31;;;4.93;68.51
66880;BME280;53789;51.392;10.234;2023-05-18T00:41:31;99278.78;;;4.93;68.19
66880;BME280;53789;51.392;10.234;2023-05-18T00:41:52;99283.16;;;4.94;68.60
66880;BME280;53789;51.392;10.234;2023-05-18T00:42:12;99280.44;;;4.94;67.85
66880;BME280;53789;51.392;10.234;2023-05-18T00:42:32;99281.25;;;4.94;68.33
66880;BME280;53789;51.392;10.234;2023-05-18T00:42:53;99277.72;;;4.94;68.15
66880;BME280;53789;51.392;10.234;2023-05-18T00:43:13;99279.59;;;4.93;68.17
66880;BME280;53789;51.392;10.234;2023-05-18T00:43:33;99280.69;;;4.92;68.36
66880;BME280;53789;51.392;10.234;2023-05-18T00:43:54;99283.16;;;4.94;68.48
66880;BME280;53789;51.392;10.234;2023-05-18T00:44:15;99274.13;;;4.93;68.07
66880;BME280;53789;51.392;10.234;2023-05-18T00:44:35;99281.25;;;4.94;69.00
66880;BME280;53789;51.392;10.234;2023-05-18T00:44:55;99276.06;;;4.93;68.05
66880;BME280;53789;51.392;10.234;2023-05-18T00:45:17;99279.03;;;4.91;67.58
66880;BME280;53789;51.392;10.234;2023-05-18T00:45:37;99273.81;;;4.90;67.76
66880;BME280;53789;51.392;10.234;2023-05-18T00:45:58;99283.91;;;4.89;67.86
66880;BME280;53789;51.392;10.234;2023-05-18T00:46:18;99281.41;;;4.88;68.11
66880;BME280;53789;51.392;10.234;2023-05-18T00:46:39;99284.16;;;4.88;67.86
66880;BME280;53789;51.392;10.234;2023-05-18T00:46:59;99280.56;;;4.87;68.32
66880;BME280;53789;51.392;10.234;2023-05-18T00:47:19;99279.75;;;4.87;68.34
66880;BME280;53789;51.392;10.234;2023-05-18T00:47:39;99280.00;;;4.85;68.17
66880;BME280;53789;51.392;10.234;2023-05-18T00:48:00;99280.81;;;4.86;68.35
66880;BME280;53789;51.392;10.234;2023-05-18T00:48:20;99278.34;;;4.84;68.25
66880;BME280;53789;51.392;10.234;2023-05-18T00:48:40;99280.25;;;4.84;68.36
66880;BME280;53789;51.392;10.234;2023-05-18T00:49:02;99282.97;;;4.84;68.85
66880;BME280;53789;51.392;10.234;2023-05-18T00:49:22;99280.50;;;4.82;68.71
66880;BME280;53789;51.392;10.234;2023-05-18T00:49:42;99282.97;;;4.84;69.60
66880;BME280;53789;51.392;10.234;2023-05-18T00:50:03;99283.78;;;4.84;69.16
66880;BME280;53789;51.392;10.234;2023-05-18T00:50:24;99279.41;;;4.83;68.46
66880;BME280;53789;51.392;10.234;2023-05-18T00:50:45;99281.31;;;4.83;67.81
66880;BME280;53789;51.392;10.234;2023-05-18T00:51:05;99279.66;;;4.81;67.89
66880;BME280;53789;51.392;10.234;2023-05-18T00:51:26;99280.72;;;4.80;68.29
66880;BME280;53789;51.392;10.234;2023-05-18T00:51:46;99277.16;;;4.80;68.41
66880;BME280;53789;51.392;10.234;2023-05-18T00:52:07;99268.16;;;4.79;68.61
66880;BME280;53789;51.392;10.234;2023-05-18T00:52:28;99279.88;;;4.80;68.85
66880;BME280;53789;51.392;10.234;2023-05-18T00:52:48;99274.44;;;4.80;68.92
66880;BME280;53789;51.392;10.234;2023-05-18T00:53:09;99280.72;;;4.80;68.36
66880;BME280;53789;51.392;10.234;2023-05-18T00:53:31;99282.63;;;4.80;67.86
66880;BME280;53789;51.392;10.234;2023-05-18T00:53:53;99277.66;;;4.77;67.52
66880;BME280;53789;51.392;10.234;2023-05-18T00:54:14;99281.22;;;4.77;67.96
66880;BME280;53789;51.392;10.234;2023-05-18T00:54:35;99278.75;;;4.76;68.12
66880;BME280;53789;51.392;10.234;2023-05-18T00:54:56;99280.63;;;4.75;68.52
66880;BME280;53789;51.392;10.234;2023-05-18T00:55:17;99283.34;;;4.75;67.62
66880;BME280;53789;51.392;10.234;2023-05-18T00:55:37;99280.88;;;4.74;68.01
66880;BME280;53789;51.392;10.234;2023-05-18T00:55:58;99276.72;;;4.71;68.47
66880;BME280;53789;51.392;10.234;2023-05-18T00:56:19;99278.88;;;4.69;68.40
66880;BME280;53789;51.392;10.234;2023-05-18T00:56:40;99278.63;;;4.71;67.74
66880;BME280;53789;51.392;10.234;2023-05-18T00:57:01;99282.41;;;4.70;68.01
66880;BME280;53789;51.392;10.234;2023-05-18T00:57:21;99270.94;;;4.68;68.16
66880;BME280;53789;51.392;10.234;2023-05-18T00:57:41;99278.06;;;4.69;69.03
66880;BME280;53789;51.392;10.234;2023-05-18T00:58:02;99282.41;;;4.70;68.62
66880;BME280;53789;51.392;10.234;2023-05-18T00:58:23;99283.50;;;4.69;68.64
66880;BME280;53789;51.392;10.234;2023-05-18T00:58:44;99278.06;;;4.69;68.18
66880;BME280;53789;51.392;10.234;2023-05-18T00:59:05;99281.59;;;4.69;68.70
66880;BME280;53789;51.392;10.234;2023-05-18T00:59:25;99284.31;;;4.69;68.81
66880;BME280;53789;51.392;10.234;2023-05-18T00:59:46;99280.78;;;4.69;68.63
66880;BME280;53789;51.392;10.234;2023-05-18T01:00:07;99281.03;;;4.67;67.98
66880;BME280;53789;51.392;10.234;2023-05-18T01:00:28;99280.41;;;4.65;68.46
66880;BME280;53789;51.392;10.234;2023-05-18T01:00:48;99276.06;;;4.64;68.28
66880;BME280;53789;51.392;10.234;2023-05-18T01:01:09;99281.50;;;4.64;68.55
66880;BME280;53789;51.392;10.234;2023-05-18T01:01:31;99277.94;;;4.63;69.06
66880;BME280;53789;51.392;10.234;2023-05-18T01:01:52;99285.28;;;4.63;68.66
66880;BME280;53789;51.392;10.234;2023-05-18T01:02:12;99276.06;;;4.64;68.60
66880;BME280;53789;51.392;10.234;2023-05-18T01:02:32;99281.72;;;4.62;68.41
66880;BME280;53789;51.392;10.234;2023-05-18T01:02:53;99284.69;;;4.61;68.44
66880;BME280;53789;51.392;10.234;2023-05-18T01:03:13;99281.97;;;4.61;68.91
66880;BME280;53789;51.392;10.234;2023-05-18T01:03:37;99282.22;;;4.59;68.32
66880;BME280;53789;51.392;10.234;2023-05-18T01:03:57;99274.28;;;4.58;68.39
66880;BME280;53789;51.392;10.234;2023-05-18T01:04:18;99281.63;;;4.57;68.41
66880;BME280;53789;51.392;10.234;2023-05-18T01:04:38;99279.72;;;4.58;68.20
66880;BME280;53789;51.392;10.234;2023-05-18T01:04:59;99280.81;;;4.57;68.50
66880;BME280;53789;51.392;10.234;2023-05-18T01:05:19;99279.97;;;4.56;68.64
66880;BME280;53789;51.392;10.234;2023-05-18T01:05:39;99279.16;;;4.56;68.87
66880;BME280;53789;51.392;10.234;2023-05-18T01:05:59;99273.47;;;4.57;68.64
66880;BME280;53789;51.392;10.234;2023-05-18T01:06:20;99277.25;;;4.56;68.26
66880;BME280;53789;51.392;10.234;2023-05-18T01:06:41;99282.69;;;4.56;68.59
66880;BME280;53789;51.392;10.234;2023-05-18T01:07:01;99280.81;;;4.57;68.84
66880;BME280;53789;51.392;10.234;2023-05-18T01:07:22;99280.81;;;4.57;68.96
66880;BME280;53789;51.392;10.234;2023-05-18T01:07:42;99278.34;;;4.55;68.25
66880;BME280;53789;51.392;10.234;2023-05-18T01:08:03;99272.88;;;4.55;68.51
66880;BME280;53789;51.392;10.234;2023-05-18T01:08:26;99281.06;;;4.55;68.50
66880;BME280;53789;51.392;10.234;2023-05-18T01:08:46;99277.50;;;4.55;68.23
66880;BME280;53789;51.392;10.234;2023-05-18T01:09:09;99275.84;;;4.54;68.74
66880;BME280;53789;51.392;10.234;2023-05-18T01:09:30;99284.03;;;4.54;68.26
66880;BME280;53789;51.392;10.234;2023-05-18T01:09:50;99273.38;;;4.52;68.37
66880;BME280;53789;51.392;10.234;2023-05-18T01:10:12;99285.91;;;4.53;68.26
66880;BME280;53789;51.392;10.234;2023-05-18T01:10:36;99282.59;;;4.51;68.08
66880;BME280;53789;51.392;10.234;2023-05-18T01:11:17;99280.69;;;4.52;68.81
66880;BME280;53789;51.392;10.234;2023-05-18T01:12:23;99282.59;;;4.51;68.62
66880;BME280;53789;51.392;10.234;2023-05-18T01:12:48;99282.84;;;4.50;68.42
66880;BME280;53789;51.392;10.234;2023-05-18T01:13:17;99283.09;;;4.48;68.05
66880;BME280;53789;51.392;10.234;2023-05-18T01:14:33;99290.31;;;4.42;68.16
66880;BME280;53789;51.392;10.234;2023-05-18T01:15:45;99280.00;;;4.44;68.95
66880;BME280;53789;51.392;10.234;2023-05-18T01:15:52;99279.66;;;4.41;68.28
66880;BME280;53789;51.392;10.234;2023-05-18T01:16:19;99277.75;;;4.41;68.71
66880;BME280;53789;51.392;10.234;2023-05-18T01:16:50;99280.47;;;4.41;68.71
66880;BME280;53789;51.392;10.234;2023-05-18T01:18:00;99282.63;;;4.39;68.71
66880;BME280;53789;51.392;10.234;2023-05-18T01:18:32;99279.06;;;4.39;68.17
66880;BME280;53789;51.392;10.234;2023-05-18T01:19:02;99286.66;;;4.37;68.09
66880;BME280;53789;51.392;10.234;2023-05-18T01:20:34;99278.97;;;4.34;68.72
66880;BME280;53789;51.392;10.234;2023-05-18T01:20:58;99278.16;;;4.33;69.08
66880;BME280;53789;51.392;10.234;2023-05-18T01:21:37;99286.31;;;4.33;69.60
66880;BME280;53789;51.392;10.234;2023-05-18T01:24:42;99278.16;;;4.33;69.05
66880;BME280;53789;51.392;10.234;2023-05-18T01:26:16;99278.16;;;4.33;68.92
66880;BME280;53789;51.392;10.234;2023-05-18T01:26:42;99282.75;;;4.33;69.07
66880;BME280;53789;51.392;10.234;2023-05-18T01:27:07;99281.69;;;4.34;69.65
66880;BME280;53789;51.392;10.234;2023-05-18T01:27:28;99282.50;;;4.34;69.64
66880;BME280;53789;51.392;10.234;2023-05-18T01:27:50;99286.66;;;4.37;69.13
66880;BME280;53789;51.392;10.234;2023-05-18T01:28:13;99278.72;;;4.35;69.15
66880;BME280;53789;51.392;10.234;2023-05-18T01:28:35;99286.09;;;4.35;68.59
66880;BME280;53789;51.392;10.234;2023-05-18T01:28:59;99283.13;;;4.36;69.02
66880;BME280;53789;51.392;10.234;2023-05-18T01:29:21;99283.94;;;4.37;69.10
66880;BME280;53789;51.392;10.234;2023-05-18T01:29:44;99282.28;;;4.36;68.62
66880;BME280;53789;51.392;10.234;2023-05-18T01:30:06;99283.94;;;4.37;69.36
66880;BME280;53789;51.392;10.234;2023-05-18T01:30:27;99284.75;;;4.37;69.52
66880;BME280;53789;51.392;10.234;2023-05-18T01:30:49;99280.97;;;4.38;69.18
66880;BME280;53789;51.392;10.234;2023-05-18T01:31:10;99288.31;;;4.38;69.26
66880;BME280;53789;51.392;10.234;2023-05-18T01:31:31;99280.16;;;4.38;68.77
66880;BME280;53789;51.392;10.234;2023-05-18T01:31:52;99282.03;;;4.37;69.08
66880;BME280;53789;51.392;10.234;2023-05-18T01:32:20;99288.56;;;4.36;68.50
66880;BME280;53789;51.392;10.234;2023-05-18T01:32:40;99290.44;;;4.36;69.10
66880;BME280;53789;51.392;10.234;2023-05-18T01:33:06;99288.56;;;4.36;69.71
66880;BME280;53789;51.392;10.234;2023-05-18T01:33:26;99285.00;;;4.36;68.88
66880;BME280;53789;51.392;10.234;2023-05-18T01:33:46;99284.19;;;4.35;68.36
66880;BME280;53789;51.392;10.234;2023-05-18T01:34:06;99281.69;;;4.34;68.42
66880;BME280;53789;51.392;10.234;2023-05-18T01:34:27;99277.31;;;4.33;68.63
66880;BME280;53789;51.392;10.234;2023-05-18T01:34:48;99283.59;;;4.33;68.50
66880;BME280;53789;51.392;10.234;2023-05-18T01:35:08;99283.00;;;4.31;68.23
66880;BME280;53789;51.392;10.234;2023-05-18T01:35:28;99277.31;;;4.33;68.66
66880;BME280;53789;51.392;10.234;2023-05-18T01:35:49;99285.72;;;4.31;68.66
66880;BME280;53789;51.392;10.234;2023-05-18T01:36:10;99283.84;;;4.32;68.94
66880;BME280;53789;51.392;10.234;2023-05-18T01:36:31;99283.59;;;4.33;69.52
66880;BME280;53789;51.392;10.234;2023-05-18T01:36:52;99289.06;;;4.33;68.73
66880;BME280;53789;51.392;10.234;2023-05-18T01:37:12;99289.06;;;4.33;68.51
66880;BME280;53789;51.392;10.234;2023-05-18T01:37:32;99288.19;;;4.33;69.15
66880;BME280;53789;51.392;10.234;2023-05-18T01:37:53;99282.50;;;4.34;68.62
66880;BME280;53789;51.392;10.234;2023-05-18T01:38:21;99281.69;;;4.34;69.07
66880;BME280;53789;51.392;10.234;2023-05-18T01:38:43;99282.50;;;4.34;68.94
66880;BME280;53789;51.392;10.234;2023-05-18T01:39:04;99286.31;;;4.33;68.25
66880;BME280;53789;51.392;10.234;2023-05-18T01:39:24;99293.66;;;4.33;68.29
66880;BME280;53789;51.392;10.234;2023-05-18T01:39:45;99282.75;;;4.33;68.29
66880;BME280;53789;51.392;10.234;2023-05-18T01:40:07;99284.66;;;4.32;68.50
66880;BME280;53789;51.392;10.234;2023-05-18T01:40:34;99283.00;;;4.31;69.04
66880;BME280;53789;51.392;10.234;2023-05-18T01:41:17;99283.00;;;4.31;68.73
66880;BME280;53789;51.392;10.234;2023-05-18T01:41:53;99288.69;;;4.30;68.67
66880;BME280;53789;51.392;10.234;2023-05-18T01:42:22;99286.81;;;4.30;69.22
66880;BME280;53789;51.392;10.234;2023-05-18T01:42:52;99287.88;;;4.29;68.68
66880;BME280;53789;51.392;10.234;2023-05-18T01:43:17;99293.31;;;4.29;68.50
66880;BME280;53789;51.392;10.234;2023-05-18T01:44:30;99288.69;;;4.30;68.33
66880;BME280;53789;51.392;10.234;2023-05-18T01:44:58;99290.59;;;4.29;68.72
66880;BME280;53789;51.392;10.234;2023-05-18T01:45:26;99286.44;;;4.26;68.50
66880;BME280;53789;51.392;10.234;2023-05-18T01:45:55;99284.56;;;4.27;68.17
66880;BME280;53789;51.392;10.234;2023-05-18T01:46:31;99291.31;;;4.24;68.60
66880;BME280;53789;51.392;10.234;2023-05-18T01:46:58;99292.13;;;4.25;68.43
66880;BME280;53789;51.392;10.234;2023-05-18T01:47:18;99289.66;;;4.23;68.17
66880;BME280;53789;51.392;10.234;2023-05-18T01:47:44;99292.59;;;4.22;68.07
66880;BME280;53789;51.392;10.234;2023-05-18T01:48:09;99296.38;;;4.21;68.10
66880;BME280;53789;51.392;10.234;2023-05-18T01:48:36;99293.66;;;4.21;68.74
66880;BME280;53789;51.392;10.234;2023-05-18T01:49:04;99297.47;;;4.20;68.72
66880;BME280;53789;51.392;10.234;2023-05-18T01:49:58;99288.47;;;4.19;69.13
66880;BME280;53789;51.392;10.234;2023-05-18T01:50:30;99285.97;;;4.18;68.77
66880;BME280;53789;51.392;10.234;2023-05-18T01:50:56;99292.50;;;4.17;68.54
66880;BME280;53789;51.392;10.234;2023-05-18T01:51:19;99287.31;;;4.15;68.90
66880;BME280;53789;51.392;10.234;2023-05-18T01:51:44;99292.75;;;4.15;68.74
66880;BME280;53789;51.392;10.234;2023-05-18T01:52:20;99296.53;;;4.14;68.45
66880;BME280;53789;51.392;10.234;2023-05-18T01:53:07;99290.25;;;4.14;69.53
66880;BME280;53789;51.392;10.234;2023-05-18T01:53:34;99288.59;;;4.13;69.13
66880;BME280;53789;51.392;10.234;2023-05-18T01:54:02;99292.97;;;4.14;68.67
66880;BME280;53789;51.392;10.234;2023-05-18T01:54:26;99291.09;;;4.14;69.27
66880;BME280;53789;51.392;10.234;2023-05-18T01:54:59;99289.41;;;4.13;69.08
66880;BME280;53789;51.392;10.234;2023-05-18T01:55:24;99292.16;;;4.13;68.70
66880;BME280;53789;51.392;10.234;2023-05-18T01:55:49;99293.44;;;4.10;68.11
66880;BME280;53789;51.392;10.234;2023-05-18T01:56:13;99287.91;;;4.05;67.70
66880;BME280;53789;51.392;10.234;2023-05-18T01:56:35;99295.25;;;4.05;68.50
66880;BME280;53789;51.392;10.234;2023-05-18T01:56:57;99291.09;;;4.02;68.46
66880;BME280;53789;51.392;10.234;2023-05-18T01:57:23;99294.88;;;4.01;68.97
66880;BME280;53789;51.392;10.234;2023-05-18T01:57:47;99296.16;;;3.99;68.44
66880;BME280;53789;51.392;10.234;2023-05-18T01:58:11;99296.41;;;3.97;69.08
66880;BME280;53789;51.392;10.234;2023-05-18T01:58:33;99289.56;;;3.95;68.19
66880;BME280;53789;51.392;10.234;2023-05-18T01:58:56;99295.00;;;3.95;68.87
66880;BME280;53789;51.392;10.234;2023-05-18T01:59:16;99290.88;;;3.92;68.71
66880;BME280;53789;51.392;10.234;2023-05-18T01:59:37;99297.13;;;3.92;69.64
66880;BME280;53789;51.392;10.234;2023-05-18T01:59:58;99293.59;;;3.92;69.70
66880;BME280;53789;51.392;10.234;2023-05-18T02:00:19;99296.31;;;3.92;68.90
66880;BME280;53789;51.392;10.234;2023-05-18T02:00:41;99292.53;;;3.93;68.97
66880;BME280;53789;51.392;10.234;2023-05-18T02:01:02;99296.06;;;3.93;69.37
66880;BME280;53789;51.392;10.234;2023-05-18T02:01:22;99299.84;;;3.92;69.25
66880;BME280;53789;51.392;10.234;2023-05-18T02:01:43;99290.06;;;3.91;69.70
66880;BME280;53789;51.392;10.234;2023-05-18T02:02:04;99297.13;;;3.92;69.45
66880;BME280;53789;51.392;10.234;2023-05-18T02:02:25;99294.63;;;3.91;68.99
66880;BME280;53789;51.392;10.234;2023-05-18T02:02:46;99295.69;;;3.90;69.12
66880;BME280;53789;51.392;10.234;2023-05-18T02:03:06;99293.22;;;3.88;69.02
66880;BME280;53789;51.392;10.234;2023-05-18T02:03:26;99298.06;;;3.86;68.95
66880;BME280;53789;51.392;10.234;2023-05-18T02:03:46;99301.84;;;3.85;69.11
66880;BME280;53789;51.392;10.234;2023-05-18T02:04:08;99289.56;;;3.83;69.01
66880;BME280;53789;51.392;10.234;2023-05-18T02:04:29;99291.69;;;3.81;69.36
66880;BME280;53789;51.392;10.234;2023-05-18T02:04:49;99294.41;;;3.81;68.71
66880;BME280;53789;51.392;10.234;2023-05-18T02:05:09;99293.22;;;3.77;69.21
66880;BME280;53789;51.392;10.234;2023-05-18T02:05:29;99294.53;;;3.74;68.74